x

West Dixon Entrance (46205) Wave Buoy

7:00am - Mon 23rd Oct 2017 All times are PDT. -7 hours from GMT.

  • Sig Wave height 14.1ft
  • Peak Period 13s
  • Wind
    29mph, 40mph gusts
  • Sea Temp 53°f
  • Air Temp 49°f
  • Sea Pressure 1010.6mb
  • West Dixon Entrance
  • West Dixon Entrance

More Historic Weather Station data

Upgrade to MSW Pro to gain access to the past 30 days of data for over 8000 Wavebouys and Weather Stations around the globe.

Join

Comparision Forecast

View Surf forecast
   
Mon 10/23 7:00am 14ft 13s 29 40 mph 1010.6mb 53f 49f
6:00am 12ft 14s 34 45 mph 1012.9mb 53f 49f
5:00am 13ft 13s 22 31 mph 1014.8mb 53f 51f
4:00am 12ft 12s 22 31 mph 1016mb 53f 51f
3:00am 12ft 13s 20 27 mph 1016.9mb 53f 52f
2:00am 12ft 12s 16 20 mph 1017.5mb 53f 52f
1:00am 13ft 12s 16 18 mph 1017.7mb 53f 52f
12:00am 12ft 14s 16 20 mph 1017.5mb 53f 52f
Sun 10/22 11:00pm 11.5ft 14s 18 20 mph 1017mb 52f 52f
10:00pm 11.5ft 14s 18 22 mph 1016.3mb 52f 51f
9:00pm 13ft 12s 20 25 mph 1015.3mb 52f 52f
8:00pm 12.5ft 12s 22 25 mph 1013.6mb 53f 51f
7:00pm 13ft 12s 22 27 mph 1012.7mb 53f 52f
6:00pm 14ft 12s 20 25 mph 1011.2mb 53f 52f
5:00pm 12.5ft 12s 13 18 mph 1010.3mb 53f 52f
4:00pm 11ft 12s 16 20 mph 1009.1mb 53f 52f
3:00pm 10ft 10s 18 20 mph 1007.7mb 53f 52f
2:00pm 9ft 11s 13 18 mph 1006.5mb 53f 51f
1:00pm 9.5ft 11s 18 22 mph 1004.8mb 53f 52f
12:00pm 9ft 11s 18 22 mph 1003mb 52f 51f
11:00am 10ft 12s 16 20 mph 1001.2mb 52f 51f
10:00am 9.5ft 12s 18 25 mph 999.4mb 52f 50f
9:00am 9ft 11s 18 22 mph 997.4mb 52f 51f
8:00am 9ft 11s 16 20 mph 995.3mb 52f 51f
7:00am 9.5ft 9s 13 20 mph 993.5mb 52f 51f
6:00am 10ft 11s 13 16 mph 991.9mb 52f 50f
5:00am 9.5ft 10s 16 18 mph 990.2mb 52f 49f
4:00am 9.5ft 9s 7 9 mph 988.7mb 52f 49f
3:00am 9ft 10s 13 18 mph 987.3mb 52f 49f
2:00am 9ft 10s 7 9 mph 986mb 52f 48f
1:00am 9ft 11s 9 11 mph 985mb 52f 47f
12:00am 10ft 9s 9 13 mph 984.6mb 52f 47f
Sat 10/21 11:00pm 11ft 8s 16 22 mph 984mb 52f 49f
10:00pm 12.5ft 8s 16 18 mph 983.3mb 52f 49f
9:00pm 12ft 10s 18 27 mph 982.8mb 52f 49f
8:00pm 13ft 10s 18 22 mph 982.4mb 52f 50f
7:00pm 13.5ft 10s 18 20 mph 982.3mb 52f 51f
6:00pm 12ft 9s 13 18 mph 982.3mb 52f 49f
5:00pm 11ft 9s 20 25 mph 982.2mb 52f 49f
4:00pm 12ft 9s 22 27 mph 982.1mb 52f 51f
3:00pm 12ft 9s 22 29 mph 981.7mb 52f 52f
2:00pm 11ft 10s 27 31 mph 981.5mb 52f 52f
1:00pm 13ft 10s 29 36 mph 981.1mb 52f 52f
12:00pm 12.5ft 9s 31 38 mph 980.8mb 52f 52f
11:00am 14ft 10s 29 38 mph 980.6mb 52f 52f
10:00am 14ft 9s 29 36 mph 980.1mb 52f 52f
9:00am 14ft 10s 29 36 mph 979.7mb 52f 50f
8:00am 13ft 8s 38 49 mph 978.5mb 52f 49f
7:00am 11.5ft 11s 31 40 mph 981.5mb 52f 48f
6:00am 10ft 7s 34 40 mph 984.3mb 52f 47f
5:00am 10ft 7s 29 36 mph 987.5mb 52f 48f
4:00am 9.5ft 11s 27 36 mph 989.9mb 52f 49f
3:00am 9.5ft 12s 27 36 mph 992mb 52f 48f
2:00am 9.5ft 12s 27 34 mph 993.5mb 52f 47f
1:00am 9ft 13s 29 36 mph 994.4mb 52f 49f
12:00am 8.5ft 12s 22 27 mph 995.9mb 52f 48f
Fri 10/20 11:00pm 9ft 11s 18 22 mph 997mb 52f 49f
10:00pm 10ft 12s 22 27 mph 997.5mb 52f 48f
9:00pm 11ft 13s 16 20 mph 998mb 52f 48f
8:00pm 11ft 11s 11 16 mph 998.5mb 52f 47f
7:00pm 12.5ft 12s 16 22 mph 998.9mb 52f 45f
6:00pm 12ft 12s 16 22 mph 998.7mb 52f 46f
5:00pm 11.5ft 12s 9 13 mph 999mb 52f 47f
4:00pm 13ft 13s 16 20 mph 998.9mb 52f 47f
3:00pm 13.5ft 13s 16 20 mph 998.6mb 53f 47f
2:00pm 11.5ft 13s 16 18 mph 998.5mb 53f 47f
1:00pm 12ft 13s 13 18 mph 998.5mb 53f 47f
12:00pm 11.5ft 14s 16 20 mph 998.3mb 52f 46f
11:00am 11.5ft 14s 18 25 mph 997.9mb 53f 45f
10:00am 12ft 12s 13 20 mph 997.2mb 52f 47f
9:00am 13ft 11s 16 20 mph 996.8mb 52f 46f
8:00am 14ft 12s 18 22 mph 996.2mb 53f 47f
7:00am 15ft 14s 18 27 mph 995.7mb 52f 47f
6:00am 15.5ft 14s 16 25 mph 995.4mb 52f 47f
5:00am 15ft 14s 18 25 mph 994.6mb 52f 46f
4:00am 16.5ft 14s 22 27 mph 993.9mb 52f 47f
3:00am 15ft 13s 22 31 mph 993.7mb 52f 46f
1:00am 15.5ft 14s 22 27 mph 992.7mb 53f 48f
12:00am 16.5ft 14s 16 22 mph 992.3mb 53f 47f
Thu 10/19 11:00pm 17.5ft 14s 18 27 mph 991.6mb 53f 48f
10:00pm  -   -  20
mph
991.1mb 53f 47f
9:00pm 17ft 14s 20 27 mph 990.5mb 53f 48f
8:00pm 19ft 15s 25 36 mph 989.7mb 53f 49f
7:00pm 20ft 15s 22 29 mph 989mb 53f 49f
6:00pm 18ft 15s 22 31 mph 988.3mb 53f 49f
5:00pm 19ft 14s 22 29 mph 987.1mb 53f 50f
4:00pm 17.5ft 15s 29 38 mph 985.9mb 53f 50f